Time;durP1;ratioP1;P1;durP2;ratioP2;P2;SDS_P1;SDS_P2;PMS_P1;PMS_P2;Temp;Humidity;BMP_temperature;BMP_pressure;BME280_temperature;BME280_humidity;BME280_pressure;Samples;Min_cycle;Max_cycle;Signal;HPM_P1;HPM_P2
2022/08/30 00:02:34;;;;;;;12.35;8.27;;;;;;;;;;5065364;28;20089;-56
2022/08/30 00:05:01;;;;;;;13.48;8.95;;;;;;;;;;5064761;28;20016;-57
2022/08/30 00:07:26;;;;;;;14.07;8.45;;;;;;;;;;5063280;28;20025;-56
2022/08/30 00:09:52;;;;;;;14.85;8.85;;;;;;;;;;5066265;28;20517;-57
2022/08/30 00:12:19;;;;;;;15.00;9.00;;;;;;;;;;5066167;28;20028;-57
2022/08/30 00:14:45;;;;;;;14.30;8.50;;;;;;;;;;5066108;28;20237;-57
2022/08/30 00:17:11;;;;;;;15.13;8.85;;;;;;;;;;5062507;28;20017;-57
2022/08/30 00:19:37;;;;;;;15.15;8.50;;;;;;;;;;5064903;28;20074;-57
2022/08/30 00:22:02;;;;;;;13.77;9.43;;;;;;;;;;5049276;28;20494;-56
2022/08/30 00:24:28;;;;;;;12.38;8.27;;;;;;;;;;5061277;28;20020;-56
2022/08/30 00:26:53;;;;;;;16.13;8.90;;;;;;;;;;5071265;28;20025;-56
2022/08/30 00:29:19;;;;;;;13.77;8.88;;;;;;;;;;5070889;28;20085;-56
2022/08/30 00:31:45;;;;;;;15.50;8.90;;;;;;;;;;5070292;28;20071;-56
2022/08/30 00:34:10;;;;;;;13.88;8.80;;;;;;;;;;5070470;28;20547;-56
2022/08/30 00:36:36;;;;;;;13.20;8.95;;;;;;;;;;5068462;28;20027;-56
2022/08/30 00:39:02;;;;;;;13.25;9.00;;;;;;;;;;5069770;28;20070;-57
2022/08/30 00:41:28;;;;;;;12.95;8.85;;;;;;;;;;5068785;28;20024;-57
2022/08/30 00:43:53;;;;;;;12.32;9.27;;;;;;;;;;5067885;28;20383;-57
2022/08/30 00:46:19;;;;;;;13.18;9.00;;;;;;;;;;5067142;28;20031;-57
2022/08/30 00:48:46;;;;;;;13.52;8.63;;;;;;;;;;5066104;28;20530;-56
2022/08/30 00:51:14;;;;;;;14.15;8.95;;;;;;;;;;5067658;28;20074;-57
2022/08/30 00:53:43;;;;;;;15.35;9.15;;;;;;;;;;5066751;28;20056;-56
2022/08/30 00:56:10;;;;;;;13.15;8.38;;;;;;;;;;5065997;28;20085;-57
2022/08/30 00:58:38;;;;;;;12.20;8.77;;;;;;;;;;5063073;28;20087;-56
2022/08/30 01:01:05;;;;;;;13.40;9.27;;;;;;;;;;5057424;28;20044;-57
2022/08/30 01:03:32;;;;;;;16.13;9.32;;;;;;;;;;5064999;28;20052;-57
2022/08/30 01:05:59;;;;;;;13.23;9.13;;;;;;;;;;5065129;28;20017;-56
2022/08/30 01:08:25;;;;;;;19.55;9.65;;;;;;;;;;5062061;28;20028;-56
2022/08/30 01:10:52;;;;;;;17.13;9.80;;;;;;;;;;5060729;28;20082;-57
2022/08/30 01:13:20;;;;;;;13.90;8.93;;;;;;;;;;5057601;28;20097;-57
2022/08/30 01:15:46;;;;;;;16.08;9.35;;;;;;;;;;5064130;28;20055;-56
2022/08/30 01:18:16;;;;;;;13.15;9.57;;;;;;;;;;5060976;28;20036;-56
2022/08/30 01:20:53;;;;;;;;;;;;;;;;;;5065895;28;20024;-57
2022/08/30 01:23:20;;;;;;;14.57;9.80;;;;;;;;;;5064608;28;19909;-57
2022/08/30 01:25:48;;;;;;;16.00;10.23;;;;;;;;;;5065048;28;20470;-56
2022/08/30 01:28:18;;;;;;;14.48;9.65;;;;;;;;;;5069656;28;20032;-56
2022/08/30 01:30:43;;;;;;;16.58;9.38;;;;;;;;;;5070811;28;20077;-57
2022/08/30 01:33:10;;;;;;;12.38;9.07;;;;;;;;;;5067789;28;20024;-57
2022/08/30 01:36:00;;;;;;;13.55;9.52;;;;;;;;;;5066794;28;20508;-56
2022/08/30 01:38:29;;;;;;;16.45;9.38;;;;;;;;;;5064070;28;20518;-56
2022/08/30 01:40:59;;;;;;;12.63;9.35;;;;;;;;;;5068274;28;20027;-56
2022/08/30 01:43:25;;;;;;;15.60;9.75;;;;;;;;;;5066665;28;20031;-56
2022/08/30 01:45:51;;;;;;;13.93;9.27;;;;;;;;;;5066868;28;20029;-56
2022/08/30 01:48:16;;;;;;;17.02;10.02;;;;;;;;;;5067181;28;20615;-56
2022/08/30 01:50:42;;;;;;;17.52;10.43;;;;;;;;;;5065249;28;20557;-56
2022/08/30 01:53:08;;;;;;;16.52;10.05;;;;;;;;;;5064453;28;20024;-56
2022/08/30 01:55:34;;;;;;;17.13;10.98;;;;;;;;;;5061737;28;20052;-56
2022/08/30 01:57:59;;;;;;;12.80;9.20;;;;;;;;;;5065005;28;20492;-56
2022/08/30 02:00:25;;;;;;;17.27;9.80;;;;;;;;;;5069606;28;20035;-56
2022/08/30 02:02:51;;;;;;;15.50;9.48;;;;;;;;;;5066386;28;20438;-56
2022/08/30 02:05:16;;;;;;;14.50;10.07;;;;;;;;;;5061152;28;20021;-56
2022/08/30 02:07:42;;;;;;;14.40;9.77;;;;;;;;;;5061735;28;20025;-56
2022/08/30 02:10:07;;;;;;;14.50;10.05;;;;;;;;;;5062967;28;20380;-56
2022/08/30 02:12:33;;;;;;;14.80;9.18;;;;;;;;;;5064066;28;20016;-56
2022/08/30 02:14:59;;;;;;;16.20;10.10;;;;;;;;;;5061553;28;20078;-56
2022/08/30 02:17:25;;;;;;;14.85;10.02;;;;;;;;;;5062151;28;20497;-55
2022/08/30 02:19:51;;;;;;;15.15;10.05;;;;;;;;;;5064394;28;20028;-56
2022/08/30 02:22:16;;;;;;;15.77;9.80;;;;;;;;;;5063778;28;20104;-56
2022/08/30 02:24:42;;;;;;;15.32;9.73;;;;;;;;;;5063408;28;20386;-56
2022/08/30 02:27:07;;;;;;;17.63;10.10;;;;;;;;;;5069433;28;20024;-56
2022/08/30 02:29:33;;;;;;;17.95;10.35;;;;;;;;;;5067302;28;20396;-56
2022/08/30 02:31:58;;;;;;;17.13;10.05;;;;;;;;;;5068039;28;20028;-55
2022/08/30 02:34:24;;;;;;;18.52;9.88;;;;;;;;;;5067961;28;20025;-57
2022/08/30 02:36:49;;;;;;;17.85;10.50;;;;;;;;;;5067991;28;20025;-56
2022/08/30 02:39:15;;;;;;;16.92;9.52;;;;;;;;;;5067426;28;20436;-56
2022/08/30 02:41:41;;;;;;;17.00;10.38;;;;;;;;;;5067854;28;20025;-56
2022/08/30 02:44:07;;;;;;;14.00;10.45;;;;;;;;;;5062121;28;20029;-57
2022/08/30 02:46:33;;;;;;;16.48;10.10;;;;;;;;;;5064158;28;20037;-56
2022/08/30 02:48:58;;;;;;;14.27;9.82;;;;;;;;;;5068257;28;20020;-56
2022/08/30 02:51:24;;;;;;;15.63;9.63;;;;;;;;;;5058400;28;20024;-57
2022/08/30 02:53:50;;;;;;;17.92;9.70;;;;;;;;;;5064966;28;20543;-57
2022/08/30 02:56:15;;;;;;;14.88;10.13;;;;;;;;;;5066030;28;20025;-56
2022/08/30 02:58:43;;;;;;;18.60;10.00;;;;;;;;;;5065737;28;20021;-56
2022/08/30 03:01:13;;;;;;;15.98;9.98;;;;;;;;;;5068457;28;20074;-56
2022/08/30 03:03:40;;;;;;;20.50;10.48;;;;;;;;;;5068048;28;20025;-57
2022/08/30 03:06:06;;;;;;;14.60;10.50;;;;;;;;;;5065702;28;20036;-56
2022/08/30 03:08:32;;;;;;;15.73;9.82;;;;;;;;;;5063540;28;20033;-56
2022/08/30 03:10:59;;;;;;;16.90;9.90;;;;;;;;;;5068405;28;20108;-56
2022/08/30 03:13:24;;;;;;;16.33;9.90;;;;;;;;;;5065973;28;20027;-57
2022/08/30 03:15:50;;;;;;;16.77;9.68;;;;;;;;;;5066439;28;20024;-56
2022/08/30 03:18:17;;;;;;;15.13;9.55;;;;;;;;;;5064343;28;20044;-56
2022/08/30 03:20:43;;;;;;;16.83;10.15;;;;;;;;;;5067671;28;20043;-56
2022/08/30 03:23:08;;;;;;;16.45;10.10;;;;;;;;;;5072355;28;20030;-56
2022/08/30 03:25:34;;;;;;;16.20;10.57;;;;;;;;;;5071354;28;20073;-56
2022/08/30 03:28:00;;;;;;;14.57;9.50;;;;;;;;;;5071797;28;20020;-57
2022/08/30 03:30:26;;;;;;;14.02;10.13;;;;;;;;;;5071769;28;20024;-57
2022/08/30 03:32:51;;;;;;;17.60;9.77;;;;;;;;;;5070553;28;20050;-56
2022/08/30 03:35:18;;;;;;;16.08;9.65;;;;;;;;;;5070464;28;20382;-56
2022/08/30 03:37:44;;;;;;;14.88;10.05;;;;;;;;;;5066443;28;20029;-57
2022/08/30 03:40:11;;;;;;;16.08;9.27;;;;;;;;;;5068254;28;20500;-56
2022/08/30 03:42:37;;;;;;;13.20;9.93;;;;;;;;;;5061180;28;20025;-57
2022/08/30 03:45:04;;;;;;;15.30;9.70;;;;;;;;;;5071825;28;20031;-57
2022/08/30 03:47:29;;;;;;;14.23;9.35;;;;;;;;;;5066373;28;20116;-57
2022/08/30 03:49:56;;;;;;;14.10;10.10;;;;;;;;;;5067900;28;20096;-57
2022/08/30 03:52:21;;;;;;;14.65;9.88;;;;;;;;;;5066795;28;20029;-57
2022/08/30 03:54:47;;;;;;;20.67;10.20;;;;;;;;;;5067847;28;20024;-56
2022/08/30 03:57:14;;;;;;;16.35;9.65;;;;;;;;;;5065491;28;20024;-56
2022/08/30 03:59:39;;;;;;;14.57;10.55;;;;;;;;;;5060433;28;20025;-56
2022/08/30 04:02:05;;;;;;;19.08;10.50;;;;;;;;;;5066558;28;20059;-56
2022/08/30 04:04:30;;;;;;;16.15;10.02;;;;;;;;;;5066870;28;20025;-56
2022/08/30 04:06:56;;;;;;;16.08;9.43;;;;;;;;;;5065605;28;20117;-56
2022/08/30 04:09:22;;;;;;;13.50;9.23;;;;;;;;;;5062373;28;20478;-56
2022/08/30 04:11:47;;;;;;;14.70;9.65;;;;;;;;;;5066119;28;20099;-57
2022/08/30 04:14:13;;;;;;;17.85;10.15;;;;;;;;;;5066580;28;20103;-57
2022/08/30 04:16:39;;;;;;;14.82;10.00;;;;;;;;;;5066707;28;20508;-56
2022/08/30 04:19:04;;;;;;;13.57;9.85;;;;;;;;;;5063152;28;20048;-57
2022/08/30 04:21:30;;;;;;;15.40;9.50;;;;;;;;;;5064949;28;20200;-57
2022/08/30 04:23:56;;;;;;;13.80;9.45;;;;;;;;;;5071621;28;20017;-57
2022/08/30 04:26:21;;;;;;;16.80;10.85;;;;;;;;;;5070638;28;20024;-56
2022/08/30 04:28:47;;;;;;;26.73;15.13;;;;;;;;;;5070515;28;20029;-57
2022/08/30 04:31:14;;;;;;;23.58;13.90;;;;;;;;;;5059340;28;20021;-56
2022/08/30 04:33:40;;;;;;;22.25;13.40;;;;;;;;;;5062644;28;20024;-56
2022/08/30 04:36:07;;;;;;;19.73;11.38;;;;;;;;;;5069245;28;20478;-56
2022/08/30 04:38:34;;;;;;;22.00;12.68;;;;;;;;;;5067396;28;20039;-56
2022/08/30 04:41:00;;;;;;;18.60;11.50;;;;;;;;;;5066586;28;20394;-56
2022/08/30 04:43:25;;;;;;;20.88;10.75;;;;;;;;;;5066315;28;20032;-56
2022/08/30 04:45:53;;;;;;;19.58;11.15;;;;;;;;;;5065268;28;20432;-56
2022/08/30 04:48:19;;;;;;;17.88;10.60;;;;;;;;;;5064097;28;20401;-55
2022/08/30 04:50:45;;;;;;;16.83;10.68;;;;;;;;;;5065249;28;20029;-56
2022/08/30 04:53:12;;;;;;;18.27;10.73;;;;;;;;;;5066384;28;20027;-56
2022/08/30 04:55:39;;;;;;;18.05;10.48;;;;;;;;;;5066173;28;20422;-56
2022/08/30 04:58:05;;;;;;;16.92;11.10;;;;;;;;;;5064417;28;20020;-55
2022/08/30 05:00:30;;;;;;;16.10;11.02;;;;;;;;;;5061396;28;20037;-55
2022/08/30 05:02:56;;;;;;;16.95;10.75;;;;;;;;;;5069423;28;20017;-56
2022/08/30 05:05:40;;;;;;;17.13;10.82;;;;;;;;;;5065583;28;20179;-57
2022/08/30 05:08:08;;;;;;;15.27;11.00;;;;;;;;;;5063211;28;20368;-56
2022/08/30 05:10:37;;;;;;;17.48;11.45;;;;;;;;;;5063026;28;20035;-57
2022/08/30 05:13:03;;;;;;;19.23;11.52;;;;;;;;;;5064679;28;20024;-57
2022/08/30 05:15:28;;;;;;;18.40;11.65;;;;;;;;;;5064306;28;20052;-57
2022/08/30 05:17:54;;;;;;;17.40;10.60;;;;;;;;;;5063134;28;20035;-56
2022/08/30 05:20:19;;;;;;;20.25;11.52;;;;;;;;;;5062950;28;20463;-57
2022/08/30 05:22:48;;;;;;;15.00;10.35;;;;;;;;;;5056823;28;20024;-57
2022/08/30 05:25:19;;;;;;;15.73;9.70;;;;;;;;;;5070172;28;20276;-57
2022/08/30 05:27:45;;;;;;;20.20;10.82;;;;;;;;;;5067305;28;20375;-57
2022/08/30 05:30:12;;;;;;;16.50;9.95;;;;;;;;;;5069547;28;20089;-57
2022/08/30 05:32:37;;;;;;;20.67;11.90;;;;;;;;;;5067207;28;20029;-56
2022/08/30 05:35:05;;;;;;;16.52;11.02;;;;;;;;;;5064370;28;20441;-56
2022/08/30 05:37:31;;;;;;;19.42;11.52;;;;;;;;;;5064551;28;20404;-56
2022/08/30 05:39:56;;;;;;;21.05;11.52;;;;;;;;;;5067239;28;20493;-56
2022/08/30 05:42:21;;;;;;;22.95;13.10;;;;;;;;;;5066612;28;20028;-56
2022/08/30 05:44:51;;;;;;;22.83;13.48;;;;;;;;;;5069843;28;20501;-56
2022/08/30 05:47:16;;;;;;;19.67;12.57;;;;;;;;;;5063835;28;20032;-56
2022/08/30 05:49:41;;;;;;;19.88;12.55;;;;;;;;;;5062892;28;20039;-57
2022/08/30 05:52:07;;;;;;;26.80;14.35;;;;;;;;;;5058020;28;20034;-57
2022/08/30 05:54:32;;;;;;;20.05;12.18;;;;;;;;;;5057579;28;20029;-57
2022/08/30 05:56:58;;;;;;;17.33;11.20;;;;;;;;;;5061057;28;20023;-57
2022/08/30 05:59:23;;;;;;;17.98;11.25;;;;;;;;;;5060659;28;20471;-57
2022/08/30 06:01:49;;;;;;;20.40;11.00;;;;;;;;;;5061472;28;20097;-56
2022/08/30 06:04:14;;;;;;;17.45;10.80;;;;;;;;;;5069378;28;20020;-57
2022/08/30 06:06:42;;;;;;;17.45;11.93;;;;;;;;;;5064753;28;20020;-56
2022/08/30 06:09:09;;;;;;;19.90;11.80;;;;;;;;;;5064758;28;20032;-57
2022/08/30 06:11:35;;;;;;;18.58;11.93;;;;;;;;;;5053380;28;20513;-57
2022/08/30 06:14:02;;;;;;;25.10;14.60;;;;;;;;;;5057661;28;20478;-57
2022/08/30 06:16:27;;;;;;;20.30;11.95;;;;;;;;;;5064475;28;20024;-57
2022/08/30 06:18:55;;;;;;;18.85;11.90;;;;;;;;;;5064631;28;20731;-57
2022/08/30 06:21:27;;;;;;;25.13;14.60;;;;;;;;;;5068308;28;20030;-57
2022/08/30 06:23:54;;;;;;;20.02;12.38;;;;;;;;;;5069083;28;20111;-57
2022/08/30 06:26:20;;;;;;;20.00;13.05;;;;;;;;;;5068590;28;20033;-57
2022/08/30 06:28:45;;;;;;;19.95;12.55;;;;;;;;;;5065907;28;20111;-57
2022/08/30 06:31:13;;;;;;;19.80;12.68;;;;;;;;;;5069700;28;20032;-57
2022/08/30 06:33:39;;;;;;;20.60;13.68;;;;;;;;;;5067495;28;20025;-57
2022/08/30 06:36:08;;;;;;;24.95;13.50;;;;;;;;;;5067196;28;20032;-57
2022/08/30 06:38:34;;;;;;;24.15;14.48;;;;;;;;;;5064509;28;20514;-57
2022/08/30 06:41:07;;;;;;;20.42;12.55;;;;;;;;;;5064746;28;20040;-57
2022/08/30 06:43:33;;;;;;;21.70;13.10;;;;;;;;;;5065218;28;20482;-57
2022/08/30 06:46:03;;;;;;;21.35;13.80;;;;;;;;;;5060552;28;20028;-57
2022/08/30 06:48:28;;;;;;;;;;;;;;;;;;5062617;28;20021;-57
2022/08/30 06:50:53;;;;;;;26.02;15.13;;;;;;;;;;5064428;28;19916;-57
2022/08/30 06:53:19;;;;;;;24.30;14.48;;;;;;;;;;5064100;28;20025;-57
2022/08/30 06:55:44;;;;;;;23.80;14.30;;;;;;;;;;5064101;28;20025;-57
2022/08/30 06:58:10;;;;;;;22.05;14.25;;;;;;;;;;5061684;28;20093;-57
2022/08/30 07:00:35;;;;;;;22.92;13.50;;;;;;;;;;5049786;28;20036;-56
2022/08/30 07:03:01;;;;;;;23.65;14.02;;;;;;;;;;5052981;28;20034;-56
2022/08/30 07:05:27;;;;;;;18.60;12.32;;;;;;;;;;5064069;28;20020;-53
2022/08/30 07:07:53;;;;;;;21.08;11.50;;;;;;;;;;5061340;28;20039;-53
2022/08/30 07:10:20;;;;;;;22.45;12.45;;;;;;;;;;5060653;28;20029;-53
2022/08/30 07:12:46;;;;;;;18.02;12.23;;;;;;;;;;5058660;28;20225;-54
2022/08/30 07:15:12;;;;;;;19.95;13.27;;;;;;;;;;5063549;28;20567;-53
2022/08/30 07:20:22;;;;;;;20.70;12.55;;;;;;;;;;5067348;28;20093;-51
2022/08/30 07:22:47;;;;;;;19.67;12.07;;;;;;;;;;5068151;28;20036;-52
2022/08/30 07:25:14;;;;;;;17.92;12.35;;;;;;;;;;5068382;28;20025;-52
2022/08/30 07:27:39;;;;;;;20.00;11.90;;;;;;;;;;5064971;28;20032;-53
2022/08/30 07:30:06;;;;;;;17.10;11.80;;;;;;;;;;5056674;28;20029;-52
2022/08/30 07:32:32;;;;;;;19.90;11.68;;;;;;;;;;5061705;28;20115;-53
2022/08/30 07:34:58;;;;;;;18.60;11.23;;;;;;;;;;5070295;28;20119;-53
2022/08/30 07:37:23;;;;;;;18.17;10.90;;;;;;;;;;5069538;28;20059;-54
2022/08/30 07:39:49;;;;;;;19.90;12.27;;;;;;;;;;5070340;28;20021;-54
2022/08/30 07:42:15;;;;;;;17.45;11.50;;;;;;;;;;5065219;28;20028;-53
2022/08/30 07:44:41;;;;;;;19.42;11.45;;;;;;;;;;5067976;28;20013;-53
2022/08/30 07:47:06;;;;;;;18.33;10.93;;;;;;;;;;5061256;28;20031;-53
2022/08/30 07:49:31;;;;;;;19.73;11.55;;;;;;;;;;5066729;28;20051;-52
2022/08/30 07:51:57;;;;;;;23.40;12.45;;;;;;;;;;5063500;28;20032;-53
2022/08/30 07:54:23;;;;;;;16.80;11.20;;;;;;;;;;5071660;28;20023;-53
2022/08/30 07:56:48;;;;;;;15.88;11.27;;;;;;;;;;5061495;28;20027;-53
2022/08/30 07:59:14;;;;;;;19.90;11.50;;;;;;;;;;5059329;28;20017;-57
2022/08/30 08:01:39;;;;;;;18.88;11.57;;;;;;;;;;5067032;28;20024;-55
2022/08/30 08:04:04;;;;;;;17.00;10.75;;;;;;;;;;5068911;28;20111;-56
2022/08/30 08:06:30;;;;;;;19.00;11.38;;;;;;;;;;5067000;28;20095;-53
2022/08/30 08:09:00;;;;;;;20.08;11.27;;;;;;;;;;5067233;28;20028;-54
2022/08/30 08:11:26;;;;;;;18.92;11.32;;;;;;;;;;5067651;28;20021;-54
2022/08/30 08:13:52;;;;;;;17.08;10.90;;;;;;;;;;5066718;28;20657;-54
2022/08/30 08:16:18;;;;;;;15.30;10.27;;;;;;;;;;5066350;28;20178;-54
2022/08/30 08:18:44;;;;;;;15.73;10.43;;;;;;;;;;5066859;28;20103;-54
2022/08/30 08:21:10;;;;;;;13.63;10.07;;;;;;;;;;5067533;28;20061;-54
2022/08/30 08:23:36;;;;;;;16.67;10.77;;;;;;;;;;5057289;28;20033;-54
2022/08/30 08:26:02;;;;;;;20.27;10.82;;;;;;;;;;5070900;28;20031;-54
2022/08/30 08:28:28;;;;;;;15.23;10.40;;;;;;;;;;5065807;28;20421;-54
2022/08/30 08:30:53;;;;;;;15.00;10.77;;;;;;;;;;5068580;28;20027;-55
2022/08/30 08:33:19;;;;;;;17.88;11.00;;;;;;;;;;5063396;28;20048;-54
2022/08/30 08:35:45;;;;;;;17.02;10.90;;;;;;;;;;5069184;28;20113;-54
2022/08/30 08:38:10;;;;;;;17.88;11.90;;;;;;;;;;5063180;28;20032;-54
2022/08/30 08:40:54;;;;;;;18.05;10.68;;;;;;;;;;5066114;28;20107;-54
2022/08/30 08:43:22;;;;;;;23.30;11.75;;;;;;;;;;5058503;28;20047;-56
2022/08/30 08:45:58;;;;;;;14.55;10.75;;;;;;;;;;5067126;28;20107;-54
2022/08/30 08:48:37;;;;;;;20.13;12.60;;;;;;;;;;5063574;28;20107;-56
2022/08/30 08:53:58;;;;;;;16.23;11.02;;;;;;;;;;5065593;28;20086;-55
2022/08/30 08:56:23;;;;;;;19.00;10.80;;;;;;;;;;5067591;28;20031;-55
2022/08/30 08:58:56;;;;;;;17.42;10.88;;;;;;;;;;5064461;28;20024;-55
2022/08/30 09:01:26;;;;;;;15.27;10.70;;;;;;;;;;5067609;28;20032;-56
2022/08/30 09:03:53;;;;;;;16.98;10.80;;;;;;;;;;5068284;28;20024;-55
2022/08/30 09:06:30;;;;;;;15.45;10.50;;;;;;;;;;5065016;28;20486;-56
2022/08/30 09:08:56;;;;;;;20.25;11.25;;;;;;;;;;5062870;28;20078;-55
2022/08/30 09:11:27;;;;;;;18.02;11.02;;;;;;;;;;5064207;28;20020;-55
2022/08/30 09:13:53;;;;;;;19.25;11.18;;;;;;;;;;5059742;28;20046;-56
2022/08/30 09:16:46;;;;;;;20.52;10.73;;;;;;;;;;5068002;28;20035;-55
2022/08/30 09:19:49;;;;;;;20.80;10.35;;;;;;;;;;5070804;28;20051;-55
2022/08/30 09:22:36;;;;;;;13.65;10.35;;;;;;;;;;5063743;28;20036;-56
2022/08/30 09:25:21;;;;;;;18.70;10.30;;;;;;;;;;5069513;28;20023;-55
2022/08/30 09:27:48;;;;;;;15.77;10.88;;;;;;;;;;5064051;28;20372;-56
2022/08/30 09:30:23;;;;;;;14.25;9.82;;;;;;;;;;5061412;28;20048;-56
2022/08/30 09:32:53;;;;;;;16.98;10.52;;;;;;;;;;5061048;28;20056;-56
2022/08/30 09:35:22;;;;;;;12.85;9.15;;;;;;;;;;5064058;28;20074;-55
2022/08/30 09:37:56;;;;;;;13.75;10.02;;;;;;;;;;5065732;28;20059;-56
2022/08/30 09:40:41;;;;;;;15.65;9.95;;;;;;;;;;5061787;28;20024;-55
2022/08/30 09:43:15;;;;;;;14.52;9.43;;;;;;;;;;5064184;28;20040;-56
2022/08/30 09:45:47;;;;;;;14.05;9.57;;;;;;;;;;5065204;28;20029;-55
2022/08/30 09:48:25;;;;;;;11.75;9.15;;;;;;;;;;5065477;28;20085;-55
2022/08/30 09:51:03;;;;;;;14.95;9.43;;;;;;;;;;5066315;28;20481;-56
2022/08/30 09:53:34;;;;;;;10.80;9.00;;;;;;;;;;5059128;28;20021;-55
2022/08/30 09:56:15;;;;;;;13.02;9.35;;;;;;;;;;5062344;28;20544;-55
2022/08/30 09:59:10;;;;;;;16.67;9.82;;;;;;;;;;5063599;28;20089;-55
2022/08/30 10:01:41;;;;;;;12.45;9.20;;;;;;;;;;5063871;28;20028;-55
2022/08/30 10:04:34;;;;;;;12.48;8.95;;;;;;;;;;5060682;28;20029;-55
2022/08/30 10:07:16;;;;;;;13.82;9.15;;;;;;;;;;5063161;28;20025;-55
2022/08/30 10:09:55;;;;;;;14.07;8.65;;;;;;;;;;5064723;28;20024;-55
2022/08/30 10:12:34;;;;;;;10.15;7.43;;;;;;;;;;5064211;28;20035;-56
2022/08/30 10:15:23;;;;;;;11.45;8.43;;;;;;;;;;5059773;28;20017;-56
2022/08/30 10:17:49;;;;;;;11.45;7.57;;;;;;;;;;5068364;28;20041;-56
2022/08/30 10:20:14;;;;;;;9.77;8.18;;;;;;;;;;5068019;28;20039;-56
2022/08/30 10:22:45;;;;;;;13.27;7.72;;;;;;;;;;5063097;28;20120;-55
2022/08/30 10:25:54;;;;;;;11.82;7.82;;;;;;;;;;5068324;28;20025;-56
2022/08/30 10:28:24;;;;;;;9.93;7.88;;;;;;;;;;5083523;28;20096;-56
2022/08/30 10:30:55;;;;;;;12.20;7.70;;;;;;;;;;5068433;28;20032;-57
2022/08/30 10:33:32;;;;;;;10.75;6.35;;;;;;;;;;5052658;28;20024;-56
2022/08/30 10:36:01;;;;;;;7.50;6.25;;;;;;;;;;5062013;28;20421;-55
2022/08/30 10:38:31;;;;;;;7.85;6.13;;;;;;;;;;5062663;28;20425;-57
2022/08/30 10:41:23;;;;;;;7.13;6.25;;;;;;;;;;5060218;28;20566;-59
2022/08/30 10:44:14;;;;;;;14.30;6.47;;;;;;;;;;5059118;28;20033;-57
2022/08/30 10:46:46;;;;;;;7.75;5.97;;;;;;;;;;5061298;28;20029;-57
2022/08/30 10:49:18;;;;;;;9.10;5.85;;;;;;;;;;5061008;28;20107;-58
2022/08/30 10:51:44;;;;;;;7.25;6.10;;;;;;;;;;5064165;28;20028;-58
2022/08/30 10:54:16;;;;;;;8.57;6.10;;;;;;;;;;5062274;28;20446;-59
2022/08/30 10:56:44;;;;;;;8.50;5.50;;;;;;;;;;5077422;28;20078;-59
2022/08/30 10:59:10;;;;;;;9.02;6.00;;;;;;;;;;5063403;28;20032;-64
2022/08/30 11:01:45;;;;;;;8.50;5.90;;;;;;;;;;5060844;28;20029;-59
2022/08/30 11:04:29;;;;;;;7.97;5.95;;;;;;;;;;5063740;28;20106;-59
2022/08/30 11:07:16;;;;;;;10.95;6.53;;;;;;;;;;5063471;28;20459;-59
2022/08/30 11:09:47;;;;;;;8.98;5.70;;;;;;;;;;5067368;28;20059;-59
2022/08/30 11:12:33;;;;;;;7.90;5.93;;;;;;;;;;5063874;28;20033;-60
2022/08/30 11:15:18;;;;;;;8.07;5.80;;;;;;;;;;5059250;28;20107;-59
2022/08/30 11:18:00;;;;;;;8.57;5.75;;;;;;;;;;5069449;28;20025;-59
2022/08/30 11:20:36;;;;;;;7.93;5.65;;;;;;;;;;5067695;28;20033;-58
2022/08/30 11:23:26;;;;;;;7.97;5.65;;;;;;;;;;5056533;28;20033;-58
2022/08/30 11:26:17;;;;;;;8.32;5.97;;;;;;;;;;5070210;28;20033;-58
2022/08/30 11:28:45;;;;;;;8.15;5.75;;;;;;;;;;5065510;28;20051;-58
2022/08/30 11:31:37;;;;;;;8.23;5.60;;;;;;;;;;5066685;28;20036;-58
2022/08/30 11:34:04;;;;;;;6.97;5.90;;;;;;;;;;5065523;28;20072;-58
2022/08/30 11:36:37;;;;;;;5.93;5.18;;;;;;;;;;5068257;28;20020;-58
2022/08/30 11:39:35;;;;;;;7.30;5.63;;;;;;;;;;5064137;28;20036;-58
2022/08/30 11:42:23;;;;;;;8.05;5.28;;;;;;;;;;5066793;28;20123;-59
2022/08/30 11:44:48;;;;;;;7.90;5.82;;;;;;;;;;5064575;28;20040;-58
2022/08/30 11:47:46;;;;;;;8.23;5.57;;;;;;;;;;5063151;28;20398;-58
2022/08/30 11:50:18;;;;;;;8.73;5.83;;;;;;;;;;5064528;28;20028;-59
2022/08/30 11:52:47;;;;;;;7.35;5.75;;;;;;;;;;5061715;28;20266;-59
2022/08/30 11:55:21;;;;;;;8.48;5.63;;;;;;;;;;5061783;28;20036;-59
2022/08/30 11:58:05;;;;;;;8.60;5.93;;;;;;;;;;5062189;28;20339;-59
2022/08/30 12:00:30;;;;;;;7.35;5.82;;;;;;;;;;5066990;28;20451;-58
2022/08/30 12:02:56;;;;;;;7.90;6.43;;;;;;;;;;5062861;28;20028;-58
2022/08/30 12:05:45;;;;;;;8.20;6.00;;;;;;;;;;5063468;28;20048;-59
2022/08/30 12:08:19;;;;;;;6.65;5.95;;;;;;;;;;5067400;28;20224;-58
2022/08/30 12:10:46;;;;;;;6.68;5.47;;;;;;;;;;5062125;28;20077;-58
2022/08/30 12:13:34;;;;;;;6.80;6.00;;;;;;;;;;5068271;28;20040;-58
2022/08/30 12:16:18;;;;;;;8.98;6.53;;;;;;;;;;5070601;28;20017;-59
2022/08/30 12:18:49;;;;;;;9.65;6.05;;;;;;;;;;5069392;28;20056;-58
2022/08/30 12:21:21;;;;;;;9.23;5.68;;;;;;;;;;5071040;28;20031;-58
2022/08/30 12:23:55;;;;;;;9.77;5.88;;;;;;;;;;5070553;28;20021;-58
2022/08/30 12:26:23;;;;;;;7.68;6.03;;;;;;;;;;5070069;28;20505;-58
2022/08/30 12:28:51;;;;;;;8.70;6.07;;;;;;;;;;5070162;28;20508;-58
2022/08/30 12:31:24;;;;;;;9.45;5.65;;;;;;;;;;5069042;28;20043;-58
2022/08/30 12:33:58;;;;;;;8.10;5.78;;;;;;;;;;5068895;28;20040;-58
2022/08/30 12:36:39;;;;;;;6.97;6.05;;;;;;;;;;5066749;28;20135;-58
2022/08/30 12:39:14;;;;;;;7.55;6.00;;;;;;;;;;5066945;28;20031;-58
2022/08/30 12:41:40;;;;;;;6.55;5.80;;;;;;;;;;5067186;28;20056;-59
2022/08/30 12:44:12;;;;;;;7.57;5.68;;;;;;;;;;5062591;28;20535;-59
2022/08/30 12:46:37;;;;;;;8.57;6.05;;;;;;;;;;5061421;28;20049;-58
2022/08/30 12:49:03;;;;;;;7.90;5.72;;;;;;;;;;5059026;28;20048;-58
2022/08/30 12:51:41;;;;;;;6.63;5.70;;;;;;;;;;5065738;28;20025;-59
2022/08/30 12:54:18;;;;;;;7.32;6.05;;;;;;;;;;5064261;28;20028;-59
2022/08/30 12:56:46;;;;;;;8.23;5.63;;;;;;;;;;5064491;28;20028;-59
2022/08/30 12:59:46;;;;;;;11.98;5.90;;;;;;;;;;5065778;28;20037;-58
2022/08/30 13:02:13;;;;;;;9.45;5.68;;;;;;;;;;5052395;28;20025;-57
2022/08/30 13:04:39;;;;;;;8.85;6.13;;;;;;;;;;5068221;28;20029;-57
2022/08/30 13:07:05;;;;;;;9.10;5.80;;;;;;;;;;5065788;28;20024;-57
2022/08/30 13:09:42;;;;;;;7.10;5.70;;;;;;;;;;5065901;28;20032;-57
2022/08/30 13:12:26;;;;;;;7.07;5.50;;;;;;;;;;5060241;28;20021;-57
2022/08/30 13:14:52;;;;;;;8.98;5.72;;;;;;;;;;5069452;28;20068;-57
2022/08/30 13:17:17;;;;;;;9.48;6.13;;;;;;;;;;5069120;28;20109;-57
2022/08/30 13:19:57;;;;;;;7.63;5.80;;;;;;;;;;5068458;28;20099;-57
2022/08/30 13:22:28;;;;;;;9.63;5.57;;;;;;;;;;5068835;28;20036;-57
2022/08/30 13:24:54;;;;;;;9.48;5.72;;;;;;;;;;5068728;28;20024;-57
2022/08/30 13:27:20;;;;;;;7.50;6.18;;;;;;;;;;5068539;28;20039;-56
2022/08/30 13:29:45;;;;;;;8.18;6.07;;;;;;;;;;5065467;28;20360;-55
2022/08/30 13:32:12;;;;;;;8.98;6.45;;;;;;;;;;5067564;28;20039;-55
2022/08/30 13:34:38;;;;;;;9.75;5.60;;;;;;;;;;5067496;28;20029;-56
2022/08/30 13:37:06;;;;;;;7.78;5.93;;;;;;;;;;5067077;28;20559;-56
2022/08/30 13:39:32;;;;;;;7.97;5.70;;;;;;;;;;5063116;28;20068;-56
2022/08/30 13:41:57;;;;;;;7.50;6.18;;;;;;;;;;5065452;28;20052;-56
2022/08/30 13:44:23;;;;;;;7.50;5.30;;;;;;;;;;5069386;28;20065;-55
2022/08/30 13:46:52;;;;;;;6.10;5.50;;;;;;;;;;5065480;28;20107;-56
2022/08/30 13:49:34;;;;;;;7.32;5.20;;;;;;;;;;5065325;28;20029;-56
2022/08/30 13:52:00;;;;;;;9.02;5.95;;;;;;;;;;5052640;28;20017;-56
2022/08/30 13:54:25;;;;;;;11.48;5.32;;;;;;;;;;5058004;28;20038;-56
2022/08/30 13:56:53;;;;;;;11.20;6.18;;;;;;;;;;5063559;28;20155;-56
2022/08/30 13:59:20;;;;;;;;;;;;;;;;;;5061344;28;20052;-56
2022/08/30 14:01:46;;;;;;;6.30;5.70;;;;;;;;;;5063788;28;19912;-56
2022/08/30 14:04:12;;;;;;;6.38;5.60;;;;;;;;;;5064846;28;20028;-56
2022/08/30 14:06:37;;;;;;;9.07;5.75;;;;;;;;;;5063249;28;20496;-56
2022/08/30 14:09:05;;;;;;;16.42;5.88;;;;;;;;;;5061196;28;20032;-56
2022/08/30 14:11:32;;;;;;;9.80;5.70;;;;;;;;;;5063389;28;20033;-56
2022/08/30 14:13:58;;;;;;;7.53;5.90;;;;;;;;;;5068985;28;20206;-56
2022/08/30 14:16:23;;;;;;;7.03;6.28;;;;;;;;;;5068849;28;20110;-57
2022/08/30 14:18:49;;;;;;;7.90;6.47;;;;;;;;;;5067702;28;20100;-57
2022/08/30 14:21:14;;;;;;;7.07;6.13;;;;;;;;;;5068292;28;20039;-57
2022/08/30 14:23:40;;;;;;;7.65;5.97;;;;;;;;;;5067264;28;20032;-56
2022/08/30 14:26:15;;;;;;;10.50;6.30;;;;;;;;;;5067101;28;20056;-57
2022/08/30 14:28:41;;;;;;;11.80;7.10;;;;;;;;;;5064502;28;20517;-57
2022/08/30 14:31:07;;;;;;;11.38;6.35;;;;;;;;;;5067050;28;20402;-57
2022/08/30 14:33:32;;;;;;;9.85;6.38;;;;;;;;;;5065830;28;20020;-56
2022/08/30 14:35:58;;;;;;;13.70;7.45;;;;;;;;;;5060911;28;20017;-55
2022/08/30 14:38:23;;;;;;;8.05;6.00;;;;;;;;;;5063626;28;20086;-53
2022/08/30 14:40:48;;;;;;;7.43;6.20;;;;;;;;;;5058677;28;20016;-55
2022/08/30 14:43:14;;;;;;;7.53;6.43;;;;;;;;;;5059200;28;20026;-55
2022/08/30 14:45:39;;;;;;;9.00;6.50;;;;;;;;;;5064907;28;20031;-54
2022/08/30 14:48:08;;;;;;;8.75;6.13;;;;;;;;;;5063215;28;20028;-54